Time;durP1;ratioP1;P1;durP2;ratioP2;P2;SDS_P1;SDS_P2;PMS_P1;PMS_P2;Temp;Humidity;BMP_temperature;BMP_pressure;BME280_temperature;BME280_humidity;BME280_pressure;Samples;Min_cycle;Max_cycle;Signal;HPM_P1;HPM_P2
2023/01/12 00:01:26;;;;;;;;;2.75;2.50;;;;;;;;5013986;28;45292;-76
2023/01/12 00:03:52;;;;;;;;;3.50;3.50;;;;;;;;5013160;28;45075;-75
2023/01/12 00:06:18;;;;;;;;;2.75;2.75;;;;;;;;5017978;28;45271;-76
2023/01/12 00:08:44;;;;;;;;;5.75;3.50;;;;;;;;5015216;28;45501;-75
2023/01/12 00:11:10;;;;;;;;;5.25;4.00;;;;;;;;5010633;28;46871;-76
2023/01/12 00:13:35;;;;;;;;;3.25;3.00;;;;;;;;5016604;28;45552;-76
2023/01/12 00:18:46;;;;;;;;;3.50;3.50;;;;;;;;5017266;28;45291;-75
2023/01/12 00:21:11;;;;;;;;;2.25;2.00;;;;;;;;5015596;28;46007;-76
2023/01/12 00:23:38;;;;;;;;;11.75;3.00;;;;;;;;5015309;28;45283;-75
2023/01/12 00:26:03;;;;;;;;;5.00;2.50;;;;;;;;5016676;28;45267;-75
2023/01/12 00:28:28;;;;;;;;;2.75;2.75;;;;;;;;5016509;28;45141;-76
2023/01/12 00:31:00;;;;;;;;;4.50;1.50;;;;;;;;5018707;28;45289;-76
2023/01/12 00:33:25;;;;;;;;;2.00;2.00;;;;;;;;5013820;28;45277;-76
2023/01/12 00:35:51;;;;;;;;;9.00;3.75;;;;;;;;5000911;28;45284;-75
2023/01/12 00:38:16;;;;;;;;;5.00;3.00;;;;;;;;5011681;28;44781;-76
2023/01/12 00:40:41;;;;;;;;;4.25;2.25;;;;;;;;5017447;28;45989;-76
2023/01/12 00:45:50;;;;;;;;;2.25;2.00;;;;;;;;5007568;28;44833;-75
2023/01/12 00:48:15;;;;;;;;;6.00;3.00;;;;;;;;5007860;28;45213;-79
2023/01/12 00:50:40;;;;;;;;;7.75;3.75;;;;;;;;5011658;28;45409;-76
2023/01/12 00:53:06;;;;;;;;;4.25;3.00;;;;;;;;5013932;28;45379;-75
2023/01/12 00:55:31;;;;;;;;;4.00;1.00;;;;;;;;5005028;28;45146;-75
2023/01/12 00:57:56;;;;;;;;;4.00;2.00;;;;;;;;5015566;28;45144;-74
2023/01/12 01:00:21;;;;;;;;;2.00;1.75;;;;;;;;5007145;28;45693;-76
2023/01/12 01:02:47;;;;;;;;;5.25;3.25;;;;;;;;5016212;28;45433;-75
2023/01/12 01:05:12;;;;;;;;;2.50;2.00;;;;;;;;5003933;28;45155;-74
2023/01/12 01:07:37;;;;;;;;;4.00;3.00;;;;;;;;5015769;28;45949;-75
2023/01/12 01:10:03;;;;;;;;;3.50;2.00;;;;;;;;5008205;28;44990;-75
2023/01/12 01:12:28;;;;;;;;;3.25;3.25;;;;;;;;5021545;28;45256;-76
2023/01/12 01:14:53;;;;;;;;;8.25;2.00;;;;;;;;5002879;28;45393;-74
2023/01/12 01:17:18;;;;;;;;;2.75;1.75;;;;;;;;5014315;28;45395;-75
2023/01/12 01:19:44;;;;;;;;;4.00;2.50;;;;;;;;5011011;28;45245;-75
2023/01/12 01:22:11;;;;;;;;;1.25;1.25;;;;;;;;5019257;28;47495;-74
2023/01/12 01:24:36;;;;;;;;;4.50;2.00;;;;;;;;5016684;28;45366;-74
2023/01/12 01:27:01;;;;;;;;;3.00;2.00;;;;;;;;5020648;28;45379;-75
2023/01/12 01:29:26;;;;;;;;;2.00;2.00;;;;;;;;5012321;28;44780;-75
2023/01/12 01:31:54;;;;;;;;;2.25;2.25;;;;;;;;5021615;28;45353;-74
2023/01/12 01:34:20;;;;;;;;;4.00;1.00;;;;;;;;5010112;28;44786;-75
2023/01/12 01:36:45;;;;;;;;;2.25;1.00;;;;;;;;5006408;28;45593;-75
2023/01/12 01:39:10;;;;;;;;;5.75;2.00;;;;;;;;5009782;28;45509;-74
2023/01/12 01:41:36;;;;;;;;;3.00;2.00;;;;;;;;5007686;28;45209;-77
2023/01/12 01:44:24;;;;;;;;;2.50;1.00;;;;;;;;5013260;28;45245;-74
2023/01/12 01:46:52;;;;;;;;;3.50;2.00;;;;;;;;5008691;28;45278;-75
2023/01/12 01:49:36;;;;;;;;;2.75;1.00;;;;;;;;5012488;28;45465;-75
2023/01/12 01:52:08;;;;;;;;;2.25;2.00;;;;;;;;5017950;28;47140;-74
2023/01/12 01:54:35;;;;;;;;;4.00;2.00;;;;;;;;5018717;28;45552;-74
2023/01/12 01:57:01;;;;;;;;;9.50;2.00;;;;;;;;5019760;28;45453;-74
2023/01/12 01:59:30;;;;;;;;;2.00;1.00;;;;;;;;5014342;28;44947;-74
2023/01/12 02:01:55;;;;;;;;;3.00;2.00;;;;;;;;5016901;28;46114;-75
2023/01/12 02:04:21;;;;;;;;;5.50;1.75;;;;;;;;5018127;28;45346;-74
2023/01/12 02:06:47;;;;;;;;;0.67;0.00;;;;;;;;5016889;28;45495;-75
2023/01/12 02:09:20;;;;;;;;;3.00;1.00;;;;;;;;5016659;28;45494;-75
2023/01/12 02:17:25;;;;;;;;;3.75;2.00;;;;;;;;5010767;28;45687;-75
2023/01/12 02:19:54;;;;;;;;;3.75;1.00;;;;;;;;5016310;28;45286;-75
2023/01/12 02:22:38;;;;;;;;;3.75;2.50;;;;;;;;5018184;28;45339;-74
2023/01/12 02:25:18;;;;;;;;;4.00;3.00;;;;;;;;5010961;28;45273;-74
2023/01/12 02:28:05;;;;;;;;;2.50;1.00;;;;;;;;5020872;28;45300;-74
2023/01/12 02:30:49;;;;;;;;;5.33;1.00;;;;;;;;5006775;28;45281;-74
2023/01/12 02:33:23;;;;;;;;;5.25;1.00;;;;;;;;5019322;28;46952;-74
2023/01/12 02:35:51;;;;;;;;;3.67;2.00;;;;;;;;5008809;28;45535;-74
2023/01/12 02:38:28;;;;;;;;;6.00;2.25;;;;;;;;5017742;28;45246;-76
2023/01/12 02:40:59;;;;;;;;;5.75;1.00;;;;;;;;5012159;28;45229;-74
2023/01/12 02:43:31;;;;;;;;;1.50;1.50;;;;;;;;5003242;28;45503;-74
2023/01/12 02:46:10;;;;;;;;;4.00;1.00;;;;;;;;5010353;28;46146;-75
2023/01/12 02:48:39;;;;;;;;;5.33;1.00;;;;;;;;5016998;28;45403;-74
2023/01/12 02:51:07;;;;;;;;;3.00;2.00;;;;;;;;5010514;28;46127;-74
2023/01/12 02:53:44;;;;;;;;;4.00;1.67;;;;;;;;5014170;28;45280;-77
2023/01/12 02:56:10;;;;;;;;;0.00;0.00;;;;;;;;5015548;28;45525;-74
2023/01/12 02:58:38;;;;;;;;;4.67;1.33;;;;;;;;5004568;28;45388;-75
2023/01/12 03:01:05;;;;;;;;;1.00;1.00;;;;;;;;5017418;28;45897;-74
2023/01/12 03:03:30;;;;;;;;;3.67;1.33;;;;;;;;5014326;28;46501;-75
2023/01/12 03:05:57;;;;;;;;;1.67;1.00;;;;;;;;5012864;28;45657;-74
2023/01/12 03:08:26;;;;;;;;;4.67;1.67;;;;;;;;5014986;28;45374;-74
2023/01/12 03:11:12;;;;;;;;;4.00;1.00;;;;;;;;5005337;28;45399;-75
2023/01/12 03:13:40;;;;;;;;;2.75;1.50;;;;;;;;5007716;28;45178;-75
2023/01/12 03:16:07;;;;;;;;;4.00;2.00;;;;;;;;5009755;28;45149;-74
2023/01/12 03:18:35;;;;;;;;;7.67;1.00;;;;;;;;5017842;28;45542;-74
2023/01/12 03:21:20;;;;;;;;;1.33;1.00;;;;;;;;5009402;28;45253;-75
2023/01/12 03:24:12;;;;;;;;;2.33;1.00;;;;;;;;5016439;28;45631;-74
2023/01/12 03:26:40;;;;;;;;;1.00;0.67;;;;;;;;5015907;28;44804;-74
2023/01/12 03:29:11;;;;;;;;;4.67;3.67;;;;;;;;5007817;28;45301;-74
2023/01/12 03:31:36;;;;;;;;;3.00;1.00;;;;;;;;5005539;28;45443;-73
2023/01/12 03:34:02;;;;;;;;;3.00;1.00;;;;;;;;5009590;28;45908;-75
2023/01/12 03:36:32;;;;;;;;;2.00;2.00;;;;;;;;5004715;28;45445;-74
2023/01/12 03:38:57;;;;;;;;;2.00;1.00;;;;;;;;5011783;28;45329;-74
2023/01/12 03:41:22;;;;;;;;;1.75;1.75;;;;;;;;5006052;28;45427;-74
2023/01/12 03:43:49;;;;;;;;;4.00;1.00;;;;;;;;5011752;28;46263;-75
2023/01/12 03:46:18;;;;;;;;;1.33;1.33;;;;;;;;5009285;28;45192;-75
2023/01/12 03:48:53;;;;;;;;;3.00;2.00;;;;;;;;5014379;28;45459;-74
2023/01/12 03:51:22;;;;;;;;;2.00;1.00;;;;;;;;5009111;28;45999;-74
2023/01/12 03:53:49;;;;;;;;;2.00;0.67;;;;;;;;5011722;28;45291;-75
2023/01/12 03:56:15;;;;;;;;;7.00;1.00;;;;;;;;5011598;28;45216;-74
2023/01/12 03:58:41;;;;;;;;;5.67;2.00;;;;;;;;5016717;28;45443;-76
2023/01/12 04:01:06;;;;;;;;;6.33;1.00;;;;;;;;5012917;28;45392;-74
2023/01/12 04:03:31;;;;;;;;;4.50;2.00;;;;;;;;5011374;28;45347;-74
2023/01/12 04:05:57;;;;;;;;;2.00;1.00;;;;;;;;5003917;28;45350;-74
2023/01/12 04:08:22;;;;;;;;;2.00;1.00;;;;;;;;5014819;28;45486;-74
2023/01/12 04:10:47;;;;;;;;;1.67;1.67;;;;;;;;5005621;28;45287;-74
2023/01/12 04:13:12;;;;;;;;;4.67;1.00;;;;;;;;5013719;28;45486;-75
2023/01/12 04:15:41;;;;;;;;;3.25;1.75;;;;;;;;5005841;28;45536;-74
2023/01/12 04:18:07;;;;;;;;;2.33;0.33;;;;;;;;5015586;28;45438;-74
2023/01/12 04:20:32;;;;;;;;;6.67;3.00;;;;;;;;5008357;28;44749;-74
2023/01/12 04:22:57;;;;;;;;;1.00;0.00;;;;;;;;5011975;28;45556;-74
2023/01/12 04:25:23;;;;;;;;;1.25;1.25;;;;;;;;5008333;28;45253;-74
2023/01/12 04:28:01;;;;;;;;;3.33;2.00;;;;;;;;5015876;28;45260;-75
2023/01/12 04:30:27;;;;;;;;;4.67;2.00;;;;;;;;5000723;28;45617;-77
2023/01/12 04:32:53;;;;;;;;;3.67;1.00;;;;;;;;5010246;28;46161;-76
2023/01/12 04:35:18;;;;;;;;;3.33;1.00;;;;;;;;5001641;28;45268;-74
2023/01/12 04:37:43;;;;;;;;;4.33;1.67;;;;;;;;5003856;28;44739;-75
2023/01/12 04:40:10;;;;;;;;;5.00;2.00;;;;;;;;5003812;28;45224;-76
2023/01/12 04:45:20;;;;;;;;;1.00;0.67;;;;;;;;5007536;28;45284;-75
2023/01/12 04:47:45;;;;;;;;;3.00;1.67;;;;;;;;5012603;28;46489;-76
2023/01/12 04:50:10;;;;;;;;;6.25;2.75;;;;;;;;5009188;28;45409;-75
2023/01/12 04:52:36;;;;;;;;;4.00;2.00;;;;;;;;5016907;28;47769;-76
2023/01/12 04:55:01;;;;;;;;;0.33;0.33;;;;;;;;5010644;28;45399;-75
2023/01/12 04:57:27;;;;;;;;;4.00;2.00;;;;;;;;5021916;28;45248;-76
2023/01/12 04:59:52;;;;;;;;;2.00;1.00;;;;;;;;5011462;28;45284;-78
2023/01/12 05:02:17;;;;;;;;;1.33;1.33;;;;;;;;5018884;28;45405;-77
2023/01/12 05:04:44;;;;;;;;;0.67;0.67;;;;;;;;5016636;28;45475;-76
2023/01/12 05:07:10;;;;;;;;;2.33;1.67;;;;;;;;5014003;28;45165;-77
2023/01/12 05:12:19;;;;;;;;;2.33;1.33;;;;;;;;5016683;28;45473;-75
2023/01/12 05:14:44;;;;;;;;;3.00;2.00;;;;;;;;5004616;28;45374;-78
2023/01/12 05:17:09;;;;;;;;;1.33;1.33;;;;;;;;5014879;28;45162;-77
2023/01/12 05:19:35;;;;;;;;;2.00;1.00;;;;;;;;5012757;28;47443;-76
2023/01/12 05:22:00;;;;;;;;;3.33;1.00;;;;;;;;5017037;28;45391;-74
2023/01/12 05:24:25;;;;;;;;;4.00;2.00;;;;;;;;5009770;28;45371;-77
2023/01/12 05:26:50;;;;;;;;;2.00;2.00;;;;;;;;5019297;28;45238;-75
2023/01/12 05:29:15;;;;;;;;;3.67;2.00;;;;;;;;5002546;28;45461;-75
2023/01/12 05:31:41;;;;;;;;;0.67;0.33;;;;;;;;5001968;28;45423;-76
2023/01/12 05:34:06;;;;;;;;;0.00;0.00;;;;;;;;5011506;28;45894;-75
2023/01/12 05:36:31;;;;;;;;;4.00;2.00;;;;;;;;5003212;28;45237;-75
2023/01/12 05:38:57;;;;;;;;;3.33;1.33;;;;;;;;5007899;28;45359;-77
2023/01/12 05:41:22;;;;;;;;;3.00;2.00;;;;;;;;5002005;28;47880;-76
2023/01/12 05:43:50;;;;;;;;;3.33;2.00;;;;;;;;5012727;28;45582;-76
2023/01/12 05:46:20;;;;;;;;;5.00;1.33;;;;;;;;5004148;28;45371;-74
2023/01/12 05:48:45;;;;;;;;;1.67;1.00;;;;;;;;5014792;28;45311;-74
2023/01/12 05:51:11;;;;;;;;;1.67;1.00;;;;;;;;5003388;28;46198;-74
2023/01/12 05:53:37;;;;;;;;;7.00;1.00;;;;;;;;5002384;28;45366;-75
2023/01/12 05:56:09;;;;;;;;;4.00;1.00;;;;;;;;5008670;28;45288;-75
2023/01/12 05:58:35;;;;;;;;;1.33;1.33;;;;;;;;5015246;28;45304;-73
2023/01/12 06:01:00;;;;;;;;;2.00;2.00;;;;;;;;5013633;28;45488;-75
2023/01/12 06:03:25;;;;;;;;;2.00;1.00;;;;;;;;5007881;28;44888;-75
2023/01/12 06:05:54;;;;;;;;;2.00;1.00;;;;;;;;5010450;28;45336;-75
2023/01/12 06:08:20;;;;;;;;;2.00;1.00;;;;;;;;5017712;28;44825;-75
2023/01/12 06:10:45;;;;;;;;;1.33;1.33;;;;;;;;5018406;28;46533;-74
2023/01/12 06:15:58;;;;;;;;;2.00;1.00;;;;;;;;5009042;28;45252;-74
2023/01/12 06:18:24;;;;;;;;;4.00;1.00;;;;;;;;5015110;28;46076;-76
2023/01/12 06:20:49;;;;;;;;;2.00;1.00;;;;;;;;5021425;28;45235;-78
2023/01/12 06:23:14;;;;;;;;;1.67;1.00;;;;;;;;5018069;28;45293;-75
2023/01/12 06:25:39;;;;;;;;;1.00;1.00;;;;;;;;5010064;28;45177;-75
2023/01/12 06:28:05;;;;;;;;;1.67;1.00;;;;;;;;5019452;28;45236;-75
2023/01/12 06:30:30;;;;;;;;;2.67;1.33;;;;;;;;5009464;28;45919;-76
2023/01/12 06:32:59;;;;;;;;;5.00;1.00;;;;;;;;5018334;28;45552;-76
2023/01/12 06:35:25;;;;;;;;;1.67;1.00;;;;;;;;5009360;28;45285;-76
2023/01/12 06:37:54;;;;;;;;;1.67;1.33;;;;;;;;5009257;28;45612;-75
2023/01/12 06:40:19;;;;;;;;;1.33;1.00;;;;;;;;5014490;28;45281;-76
2023/01/12 06:42:44;;;;;;;;;1.00;1.00;;;;;;;;5017309;28;45305;-75
2023/01/12 06:45:09;;;;;;;;;2.67;1.00;;;;;;;;5011480;28;45013;-74
2023/01/12 06:47:42;;;;;;;;;5.00;1.00;;;;;;;;5020475;28;45259;-76
2023/01/12 06:50:08;;;;;;;;;1.00;1.00;;;;;;;;5011383;28;45157;-76
2023/01/12 06:52:33;;;;;;;;;3.33;1.33;;;;;;;;5014481;28;45395;-75
2023/01/12 06:54:58;;;;;;;;;1.00;0.00;;;;;;;;5010555;28;45259;-75
2023/01/12 06:57:23;;;;;;;;;4.00;1.00;;;;;;;;5015520;28;45252;-75
2023/01/12 06:59:49;;;;;;;;;0.67;0.33;;;;;;;;5013647;28;45422;-76
2023/01/12 07:02:15;;;;;;;;;0.67;0.33;;;;;;;;5014294;28;45379;-79
2023/01/12 07:04:40;;;;;;;;;1.00;1.00;;;;;;;;5005585;28;45892;-79
2023/01/12 07:07:06;;;;;;;;;0.00;0.00;;;;;;;;5018048;28;44896;-78
2023/01/12 07:09:32;;;;;;;;;1.33;1.00;;;;;;;;5007484;28;45434;-77
2023/01/12 07:11:57;;;;;;;;;0.67;0.00;;;;;;;;5014620;28;45391;-78
2023/01/12 07:14:22;;;;;;;;;2.67;1.00;;;;;;;;5013691;28;45494;-77
2023/01/12 07:16:47;;;;;;;;;1.33;0.33;;;;;;;;5011813;28;45251;-78
2023/01/12 07:19:12;;;;;;;;;1.33;0.00;;;;;;;;5012411;28;45514;-75
2023/01/12 07:21:38;;;;;;;;;0.00;0.00;;;;;;;;5014549;28;45465;-77
2023/01/12 07:24:03;;;;;;;;;1.00;0.00;;;;;;;;5009369;28;45256;-77
2023/01/12 07:26:28;;;;;;;;;2.00;0.00;;;;;;;;5017533;28;45394;-78
2023/01/12 07:28:54;;;;;;;;;0.00;0.00;;;;;;;;5014594;28;45512;-80
2023/01/12 07:31:19;;;;;;;;;0.33;0.33;;;;;;;;5000386;28;45360;-78
2023/01/12 07:33:44;;;;;;;;;1.00;0.00;;;;;;;;5012201;28;45340;-77
2023/01/12 07:36:09;;;;;;;;;1.00;0.00;;;;;;;;5008189;28;45418;-77
2023/01/12 07:38:36;;;;;;;;;0.67;0.00;;;;;;;;5014274;28;47830;-77
2023/01/12 07:41:01;;;;;;;;;0.00;0.00;;;;;;;;5006190;28;45282;-77
2023/01/12 07:43:26;;;;;;;;;1.00;0.00;;;;;;;;5014996;28;45337;-76
2023/01/12 07:45:54;;;;;;;;;0.00;0.00;;;;;;;;5006161;28;45208;-77
2023/01/12 07:48:20;;;;;;;;;1.00;1.00;;;;;;;;5015313;28;47165;-77
2023/01/12 07:50:45;;;;;;;;;1.00;1.00;;;;;;;;5006940;28;45429;-78
2023/01/12 07:53:10;;;;;;;;;6.00;1.00;;;;;;;;5004897;28;45280;-76
2023/01/12 07:55:38;;;;;;;;;2.00;0.67;;;;;;;;5012099;28;45233;-78
2023/01/12 07:58:05;;;;;;;;;2.00;1.00;;;;;;;;5016935;28;45485;-78
2023/01/12 08:00:30;;;;;;;;;0.33;0.33;;;;;;;;5014496;28;45488;-78
2023/01/12 08:03:03;;;;;;;;;1.00;1.00;;;;;;;;5014053;28;45383;-77
2023/01/12 08:05:28;;;;;;;;;1.00;1.00;;;;;;;;5015569;28;45355;-77
2023/01/12 08:07:53;;;;;;;;;1.00;1.00;;;;;;;;5017905;28;45585;-78
2023/01/12 08:10:19;;;;;;;;;0.33;0.33;;;;;;;;5022762;28;45256;-77
2023/01/12 08:12:44;;;;;;;;;0.00;0.00;;;;;;;;5014877;28;45267;-77
2023/01/12 08:15:10;;;;;;;;;4.00;0.00;;;;;;;;5010156;28;45419;-76
2023/01/12 08:18:04;;;;;;;;;1.00;1.00;;;;;;;;5018723;28;45555;-76
2023/01/12 08:20:32;;;;;;;;;2.00;0.00;;;;;;;;5004810;28;45439;-75
2023/01/12 08:22:59;;;;;;;;;1.00;1.00;;;;;;;;5016528;28;45445;-76
2023/01/12 08:25:29;;;;;;;;;0.00;0.00;;;;;;;;5011249;28;45427;-79
2023/01/12 08:27:57;;;;;;;;;4.67;0.67;;;;;;;;5013679;28;46935;-78
2023/01/12 08:30:24;;;;;;;;;1.00;0.00;;;;;;;;5015552;28;45371;-78
2023/01/12 08:32:49;;;;;;;;;1.00;0.00;;;;;;;;5016037;28;44654;-76
2023/01/12 08:35:18;;;;;;;;;1.00;0.00;;;;;;;;5012869;28;47087;-76
2023/01/12 08:37:44;;;;;;;;;0.00;0.00;;;;;;;;5017425;28;45178;-77
2023/01/12 08:40:09;;;;;;;;;0.67;0.00;;;;;;;;5013357;28;45410;-75
2023/01/12 08:42:35;;;;;;;;;0.00;0.00;;;;;;;;5018149;28;45409;-77
2023/01/12 08:45:00;;;;;;;;;2.00;2.00;;;;;;;;5014373;28;45127;-81
2023/01/12 08:47:27;;;;;;;;;1.33;0.00;;;;;;;;5010403;28;46344;-75
2023/01/12 08:49:52;;;;;;;;;0.33;0.33;;;;;;;;5015330;28;45235;-76
2023/01/12 08:52:17;;;;;;;;;0.67;0.00;;;;;;;;5018264;28;45466;-79
2023/01/12 08:54:43;;;;;;;;;3.33;0.00;;;;;;;;5008065;28;45159;-76
2023/01/12 08:57:08;;;;;;;;;1.67;0.00;;;;;;;;5016684;28;45314;-78
2023/01/12 08:59:33;;;;;;;;;0.00;0.00;;;;;;;;5007927;28;45366;-78
2023/01/12 09:01:58;;;;;;;;;2.00;0.00;;;;;;;;5016600;28;45243;-81
2023/01/12 09:04:24;;;;;;;;;0.33;0.00;;;;;;;;5012402;28;45597;-79
2023/01/12 09:06:49;;;;;;;;;0.33;0.33;;;;;;;;5016932;28;45984;-77
2023/01/12 09:09:16;;;;;;;;;3.00;0.00;;;;;;;;5011992;28;45244;-81
2023/01/12 09:11:42;;;;;;;;;2.00;0.33;;;;;;;;5012818;28;45236;-77
2023/01/12 09:14:08;;;;;;;;;2.00;1.00;;;;;;;;5011665;28;45499;-78
2023/01/12 09:16:33;;;;;;;;;2.67;0.67;;;;;;;;5016514;28;45540;-77
2023/01/12 09:18:58;;;;;;;;;3.33;1.00;;;;;;;;5013354;28;45467;-77
2023/01/12 09:21:25;;;;;;;;;0.00;0.00;;;;;;;;5017297;28;45414;-76
2023/01/12 09:23:53;;;;;;;;;1.00;1.00;;;;;;;;5009061;28;45450;-76
2023/01/12 09:26:23;;;;;;;;;0.00;0.00;;;;;;;;5004056;28;45362;-77
2023/01/12 09:28:50;;;;;;;;;0.00;0.00;;;;;;;;5001664;28;45427;-78
2023/01/12 09:31:16;;;;;;;;;0.33;0.33;;;;;;;;5013356;28;45442;-78
2023/01/12 09:33:42;;;;;;;;;0.67;0.00;;;;;;;;5012874;28;45578;-77
2023/01/12 09:36:08;;;;;;;;;2.33;0.00;;;;;;;;5020072;28;45283;-79
2023/01/12 09:38:34;;;;;;;;;3.33;0.00;;;;;;;;5018686;28;45281;-77
2023/01/12 09:41:01;;;;;;;;;1.33;0.67;;;;;;;;5015844;28;44788;-77
2023/01/12 09:49:11;;;;;;;;;1.00;1.00;;;;;;;;5019297;28;48038;-78
2023/01/12 09:51:40;;;;;;;;;1.00;1.00;;;;;;;;5023684;28;45248;-77
2023/01/12 09:54:05;;;;;;;;;0.00;0.00;;;;;;;;5018003;28;45143;-77
2023/01/12 09:56:35;;;;;;;;;3.00;1.33;;;;;;;;5021798;28;46348;-78
2023/01/12 09:59:21;;;;;;;;;1.00;0.67;;;;;;;;5020391;28;45487;-78
2023/01/12 10:01:46;;;;;;;;;1.00;1.00;;;;;;;;5012811;28;45463;-77
2023/01/12 10:04:12;;;;;;;;;1.00;1.00;;;;;;;;5014945;28;45652;-77
2023/01/12 10:06:38;;;;;;;;;3.33;1.00;;;;;;;;5017414;28;45291;-77
2023/01/12 10:09:05;;;;;;;;;3.00;1.33;;;;;;;;5017290;28;46287;-77
2023/01/12 10:11:49;;;;;;;;;5.33;2.00;;;;;;;;5012378;28;45197;-76
2023/01/12 10:14:28;;;;;;;;;2.00;1.00;;;;;;;;5012219;28;45493;-77
2023/01/12 10:16:56;;;;;;;;;1.67;1.00;;;;;;;;5016325;28;45323;-77
2023/01/12 10:19:37;;;;;;;;;2.00;0.00;;;;;;;;5013491;28;45407;-77
2023/01/12 10:22:10;;;;;;;;;0.00;0.00;;;;;;;;5007745;28;45221;-77
2023/01/12 10:24:39;;;;;;;;;0.00;0.00;;;;;;;;5010651;28;45376;-78
2023/01/12 10:27:09;;;;;;;;;3.00;1.67;;;;;;;;5012734;28;47411;-77
2023/01/12 10:29:34;;;;;;;;;1.00;0.00;;;;;;;;5011979;28;45186;-80
2023/01/12 10:31:59;;;;;;;;;4.67;0.33;;;;;;;;5007651;28;45191;-78
2023/01/12 10:34:24;;;;;;;;;0.67;0.00;;;;;;;;5013117;28;45893;-77
2023/01/12 10:36:56;;;;;;;;;2.00;0.00;;;;;;;;5018379;28;46993;-77
2023/01/12 10:39:48;;;;;;;;;4.00;1.00;;;;;;;;5015220;28;45488;-76
2023/01/12 10:45:11;;;;;;;;;0.00;0.00;;;;;;;;5010125;28;45371;-78
2023/01/12 10:47:36;;;;;;;;;2.00;0.00;;;;;;;;5013250;28;45406;-77
2023/01/12 10:50:22;;;;;;;;;0.00;0.00;;;;;;;;5012822;28;45494;-77
2023/01/12 10:52:49;;;;;;;;;1.67;1.00;;;;;;;;5013050;28;45453;-78
2023/01/12 10:55:18;;;;;;;;;0.00;0.00;;;;;;;;5013075;28;45422;-78
2023/01/12 10:57:45;;;;;;;;;0.00;0.00;;;;;;;;5015443;28;45868;-78
2023/01/12 11:00:15;;;;;;;;;3.00;1.00;;;;;;;;5010428;28;45455;-79
2023/01/12 11:02:42;;;;;;;;;1.67;0.00;;;;;;;;5017372;28;45264;-80
2023/01/12 11:05:25;;;;;;;;;0.67;0.67;;;;;;;;5010876;28;46193;-79
2023/01/12 11:07:50;;;;;;;;;1.00;1.00;;;;;;;;5017802;28;47713;-78
2023/01/12 11:10:24;;;;;;;;;0.00;0.00;;;;;;;;5008535;28;45179;-78
2023/01/12 11:12:57;;;;;;;;;0.00;0.00;;;;;;;;5018002;28;45261;-79
2023/01/12 11:15:23;;;;;;;;;0.33;0.33;;;;;;;;5007435;28;45477;-80
2023/01/12 11:18:07;;;;;;;;;3.00;1.00;;;;;;;;5011576;28;45483;-80
2023/01/12 11:20:41;;;;;;;;;1.33;0.00;;;;;;;;5012079;28;44713;-79
2023/01/12 11:23:15;;;;;;;;;1.00;1.00;;;;;;;;5010921;28;45348;-78
2023/01/12 11:25:43;;;;;;;;;1.33;1.00;;;;;;;;5010417;28;45529;-78
2023/01/12 11:28:08;;;;;;;;;3.00;1.67;;;;;;;;5028012;28;47222;-79
2023/01/12 11:30:50;;;;;;;;;7.67;5.00;;;;;;;;5007375;28;45155;-79
2023/01/12 11:33:18;;;;;;;;;4.33;4.33;;;;;;;;5014178;28;45286;-79
2023/01/12 11:35:48;;;;;;;;;2.33;1.00;;;;;;;;5017431;28;45374;-77
2023/01/12 11:38:26;;;;;;;;;0.33;0.33;;;;;;;;5010456;28;45569;-79
2023/01/12 11:40:54;;;;;;;;;0.67;0.67;;;;;;;;5006336;28;45452;-79
2023/01/12 11:46:18;;;;;;;;;3.67;1.67;;;;;;;;5011040;28;45290;-78
2023/01/12 11:48:51;;;;;;;;;3.00;1.00;;;;;;;;5005730;28;45430;-80
2023/01/12 11:51:16;;;;;;;;;3.00;1.33;;;;;;;;5023466;28;45192;-82
2023/01/12 11:53:42;;;;;;;;;0.00;0.00;;;;;;;;5010133;28;45452;-83
2023/01/12 11:56:40;;;;;;;;;4.00;4.00;;;;;;;;5021671;28;45410;-79
2023/01/12 11:59:05;;;;;;;;;4.67;3.00;;;;;;;;5006111;28;46060;-79
2023/01/12 12:01:49;;;;;;;;;35.25;32.25;;;;;;;;5018570;28;45223;-79
2023/01/12 12:04:29;;;;;;;;;1.00;0.67;;;;;;;;5008694;28;45497;-82
2023/01/12 12:07:03;;;;;;;;;3.67;2.33;;;;;;;;5014508;28;46362;-82
2023/01/12 12:09:31;;;;;;;;;2.00;0.33;;;;;;;;5013728;28;45500;-79
2023/01/12 12:11:59;;;;;;;;;2.00;0.00;;;;;;;;5014564;28;45524;-77
2023/01/12 12:14:34;;;;;;;;;0.67;0.67;;;;;;;;5014313;28;45535;-78
2023/01/12 12:16:59;;;;;;;;;1.00;1.00;;;;;;;;5017081;28;45418;-77
2023/01/12 12:19:27;;;;;;;;;0.33;0.00;;;;;;;;5006559;28;47200;-81
2023/01/12 12:22:09;;;;;;;;;5.00;4.00;;;;;;;;5016163;28;45275;-79
2023/01/12 12:24:37;;;;;;;;;1.00;1.00;;;;;;;;5010681;28;45470;-79
2023/01/12 12:27:23;;;;;;;;;2.00;2.00;;;;;;;;5004563;28;46251;-78
2023/01/12 12:29:58;;;;;;;;;2.00;1.67;;;;;;;;5008171;28;47588;-77
2023/01/12 12:32:27;;;;;;;;;2.00;2.00;;;;;;;;5009853;28;45312;-79
2023/01/12 12:34:53;;;;;;;;;2.00;0.00;;;;;;;;5010588;28;45335;-80
2023/01/12 12:37:21;;;;;;;;;0.00;0.00;;;;;;;;5017523;28;46578;-79
2023/01/12 12:39:58;;;;;;;;;1.00;1.00;;;;;;;;5008661;28;48171;-78
2023/01/12 12:45:36;;;;;;;;;2.00;0.00;;;;;;;;5008260;28;45505;-82
2023/01/12 12:48:02;;;;;;;;;0.33;0.33;;;;;;;;5014656;28;45250;-82
2023/01/12 12:50:30;;;;;;;;;1.00;1.00;;;;;;;;5020096;28;45236;-81
2023/01/12 12:53:10;;;;;;;;;0.00;0.00;;;;;;;;5015267;28;45409;-80
2023/01/12 12:55:35;;;;;;;;;4.00;1.00;;;;;;;;5013857;28;45505;-82
2023/01/12 12:58:03;;;;;;;;;1.67;0.67;;;;;;;;5015454;28;45328;-81
2023/01/12 13:00:41;;;;;;;;;0.67;0.67;;;;;;;;5015502;28;47527;-81
2023/01/12 13:03:07;;;;;;;;;1.00;1.00;;;;;;;;5016558;28;45268;-78
2023/01/12 13:05:38;;;;;;;;;1.00;0.67;;;;;;;;5020639;28;45292;-79
2023/01/12 13:08:05;;;;;;;;;1.33;1.33;;;;;;;;5021469;28;45699;-78
2023/01/12 13:10:30;;;;;;;;;0.00;0.00;;;;;;;;5010793;28;45263;-78
2023/01/12 13:12:57;;;;;;;;;0.00;0.00;;;;;;;;5019836;28;45533;-79
2023/01/12 13:15:25;;;;;;;;;0.67;0.67;;;;;;;;5022200;28;45273;-79
2023/01/12 13:17:51;;;;;;;;;0.00;0.00;;;;;;;;5026810;28;45413;-79
2023/01/12 13:20:17;;;;;;;;;1.33;0.33;;;;;;;;5021665;28;48243;-80
2023/01/12 13:22:47;;;;;;;;;2.00;1.00;;;;;;;;5036232;28;45265;-78
2023/01/12 13:25:19;;;;;;;;;0.00;0.00;;;;;;;;5015345;28;45256;-80
2023/01/12 13:27:47;;;;;;;;;1.00;1.00;;;;;;;;5024453;28;46012;-78
2023/01/12 13:30:18;;;;;;;;;1.00;0.00;;;;;;;;5010813;28;45251;-76
2023/01/12 13:32:59;;;;;;;;;8.00;6.67;;;;;;;;5010866;28;45355;-79
2023/01/12 13:35:26;;;;;;;;;6.67;4.33;;;;;;;;5026810;28;45348;-78
2023/01/12 13:38:06;;;;;;;;;5.33;3.67;;;;;;;;5023775;28;45903;-77
2023/01/12 13:40:32;;;;;;;;;3.00;3.00;;;;;;;;5017783;28;46377;-78
2023/01/12 13:43:14;;;;;;;;;4.00;4.00;;;;;;;;5021995;28;45157;-79
2023/01/12 13:45:45;;;;;;;;;2.00;0.33;;;;;;;;5014862;28;45237;-76
2023/01/12 13:48:11;;;;;;;;;2.00;2.00;;;;;;;;5020272;28;45417;-75
2023/01/12 13:50:37;;;;;;;;;3.67;1.00;;;;;;;;5020939;28;45434;-75
2023/01/12 13:53:03;;;;;;;;;0.00;0.00;;;;;;;;5020272;28;45433;-77
2023/01/12 13:55:30;;;;;;;;;0.00;0.00;;;;;;;;5014925;28;45241;-78
2023/01/12 13:58:03;;;;;;;;;0.00;0.00;;;;;;;;5021281;28;45393;-77
2023/01/12 14:00:31;;;;;;;;;2.00;0.33;;;;;;;;5002792;28;47554;-76
2023/01/12 14:02:56;;;;;;;;;3.67;2.00;;;;;;;;5020796;28;45278;-77
2023/01/12 14:05:21;;;;;;;;;1.67;1.00;;;;;;;;5007454;28;45454;-78
2023/01/12 14:07:58;;;;;;;;;2.00;1.67;;;;;;;;5010523;28;46159;-76
2023/01/12 14:10:37;;;;;;;;;1.67;0.00;;;;;;;;5017537;28;47206;-76
2023/01/12 14:13:05;;;;;;;;;1.00;0.00;;;;;;;;5021410;28;45284;-81
2023/01/12 14:18:44;;;;;;;;;4.33;2.67;;;;;;;;5016353;28;45230;-80
2023/01/12 14:21:31;;;;;;;;;6.33;5.00;;;;;;;;5011876;28;46537;-78
2023/01/12 14:24:12;;;;;;;;;4.00;1.67;;;;;;;;5016703;28;45332;-79
2023/01/12 14:26:37;;;;;;;;;1.00;1.00;;;;;;;;5008734;28;45503;-79
2023/01/12 14:29:03;;;;;;;;;1.00;1.00;;;;;;;;5012462;28;45466;-80
2023/01/12 14:31:49;;;;;;;;;1.00;1.00;;;;;;;;5017443;28;46953;-79
2023/01/12 14:34:35;;;;;;;;;2.33;2.00;;;;;;;;5016507;28;45299;-79
2023/01/12 14:37:02;;;;;;;;;4.00;4.00;;;;;;;;5015170;28;45232;-78
2023/01/12 14:39:30;;;;;;;;;6.67;4.00;;;;;;;;5012640;28;45531;-78
2023/01/12 14:47:37;;;;;;;;;3.00;1.00;;;;;;;;5018874;28;45383;-79
2023/01/12 14:50:12;;;;;;;;;7.67;4.67;;;;;;;;5015067;28;46025;-79
2023/01/12 14:52:38;;;;;;;;;8.33;4.67;;;;;;;;5019625;28;45405;-76
2023/01/12 14:55:14;;;;;;;;;4.00;3.00;;;;;;;;5014774;28;45313;-77
2023/01/12 14:57:39;;;;;;;;;3.00;2.00;;;;;;;;5018444;28;45284;-79
2023/01/12 15:00:05;;;;;;;;;4.33;4.00;;;;;;;;5014789;28;45127;-79
2023/01/12 15:02:33;;;;;;;;;2.00;2.00;;;;;;;;5018933;28;45760;-80
2023/01/12 15:05:04;;;;;;;;;4.33;2.33;;;;;;;;5010669;28;45398;-79
2023/01/12 15:07:32;;;;;;;;;4.00;3.00;;;;;;;;5019657;28;45240;-83
2023/01/12 15:09:58;;;;;;;;;5.67;4.33;;;;;;;;5007122;28;45325;-78
2023/01/12 15:12:33;;;;;;;;;3.00;2.00;;;;;;;;5019330;28;45536;-80
2023/01/12 15:15:15;;;;;;;;;3.67;3.67;;;;;;;;5006254;28;45544;-79
2023/01/12 15:25:59;;;;;;;;;1.00;1.00;;;;;;;;5005336;28;45449;-79
2023/01/12 15:28:26;;;;;;;;;5.00;1.00;;;;;;;;5012904;28;45556;-81
2023/01/12 15:30:52;;;;;;;;;3.00;2.00;;;;;;;;5016208;28;45419;-77
2023/01/12 15:33:18;;;;;;;;;2.00;0.33;;;;;;;;5015440;28;46025;-77
2023/01/12 15:35:44;;;;;;;;;5.00;2.33;;;;;;;;5009878;28;45200;-77
2023/01/12 15:38:12;;;;;;;;;3.67;2.67;;;;;;;;5014012;28;45402;-77
2023/01/12 15:40:37;;;;;;;;;4.67;4.00;;;;;;;;5013118;28;45376;-78
2023/01/12 15:43:03;;;;;;;;;1.67;1.67;;;;;;;;5006185;28;46146;-79